Terminal Aerodrome Forecast
Issued by NWS Dodge City, KS

Home | Current Version | Previous Version | Graphics & Text | Print | Product List | Glossary Off
Versions: 1 2 3 4 5 6 7 8 9 10 11 12 13 14 15 16

000
FTUS43 KDDC 220050 AAB
TAFDDC
TAF AMD
KDDC 220050Z 2201/2224 02016KT P6SM BKN040 OVC060
     FM220500 02011KT P6SM BKN035
     FM221500 01011G19KT P6SM BKN045=

USA.gov is the U.S. government's official web portal to all federal, state and local government web resources and services.